Time;durP1;ratioP1;P1;durP2;ratioP2;P2;SDS_P1;SDS_P2;PMS_P1;PMS_P2;Temp;Humidity;BMP_temperature;BMP_pressure;BME280_temperature;BME280_humidity;BME280_pressure;Samples;Min_cycle;Max_cycle;Signal;HPM_P1;HPM_P2
2023/05/21 00:01:40;;;;;;;10.65;7.40;;;;;;;17.28;60.54;102095.69;5073097;28;20047;-78
2023/05/21 00:04:11;;;;;;;11.20;7.15;;;;;;;17.13;61.17;102103.50;5072878;28;20409;-80
2023/05/21 00:06:40;;;;;;;10.38;7.13;;;;;;;17.17;61.01;102089.47;5073625;28;20060;-80
2023/05/21 00:09:11;;;;;;;9.25;6.45;;;;;;;17.17;60.96;102085.09;5073990;28;20025;-81
2023/05/21 00:11:39;;;;;;;10.38;7.25;;;;;;;16.91;62.00;102084.94;5075143;28;20544;-78
2023/05/21 00:14:05;;;;;;;11.10;6.88;;;;;;;17.00;61.66;102089.38;5074535;28;20028;-79
2023/05/21 00:16:30;;;;;;;9.38;7.38;;;;;;;17.00;61.53;102086.75;5077064;28;20400;-78
2023/05/21 00:18:56;;;;;;;9.52;6.18;;;;;;;17.08;61.19;102084.16;5074092;28;20028;-80
2023/05/21 00:21:24;;;;;;;9.48;6.47;;;;;;;16.92;61.76;102081.44;5054720;28;20036;-78
2023/05/21 00:23:52;;;;;;;12.18;6.47;;;;;;;16.89;62.09;102080.53;5073147;28;20051;-78
2023/05/21 00:26:20;;;;;;;8.95;6.28;;;;;;;17.01;61.65;102089.41;5074606;28;20043;-81
2023/05/21 00:28:45;;;;;;;10.18;6.75;;;;;;;16.88;62.52;102081.41;5075260;28;20088;-80
2023/05/21 00:31:14;;;;;;;8.40;6.30;;;;;;;16.98;62.03;102070.94;5075385;28;20544;-80
2023/05/21 00:33:40;;;;;;;10.68;6.13;;;;;;;16.97;62.19;102074.44;5073750;28;20048;-80
2023/05/21 00:36:05;;;;;;;8.40;6.10;;;;;;;16.87;62.56;102075.25;5054942;28;20035;-80
2023/05/21 00:38:36;;;;;;;11.07;6.25;;;;;;;16.82;62.70;102071.72;5072803;28;20090;-80
2023/05/21 00:41:04;;;;;;;9.45;6.28;;;;;;;16.88;62.36;102070.88;5072618;28;20051;-81
2023/05/21 00:43:31;;;;;;;9.15;6.53;;;;;;;16.78;62.80;102067.28;5072620;28;20041;-80
2023/05/21 00:45:58;;;;;;;8.27;5.85;;;;;;;16.93;62.40;102069.13;5073329;28;20094;-80
2023/05/21 00:48:23;;;;;;;10.82;6.18;;;;;;;16.83;62.86;102070.81;5072903;28;20041;-82
2023/05/21 00:50:49;;;;;;;9.02;6.20;;;;;;;16.87;62.65;102066.47;5073770;28;20374;-81
2023/05/21 00:53:18;;;;;;;8.93;5.78;;;;;;;16.93;62.49;102066.50;5072957;28;20111;-82
2023/05/21 00:55:47;;;;;;;6.28;5.00;;;;;;;16.95;62.45;102065.66;5088590;28;20515;-82
2023/05/21 00:58:16;;;;;;;7.78;5.93;;;;;;;17.07;62.04;102067.47;5088140;28;20046;-79
2023/05/21 01:00:42;;;;;;;8.50;5.75;;;;;;;16.97;62.20;102065.63;5066713;28;20081;-79
2023/05/21 01:03:08;;;;;;;8.82;5.97;;;;;;;17.09;62.18;102067.47;5073175;28;20037;-82
2023/05/21 01:05:36;;;;;;;8.70;5.50;;;;;;;17.09;61.93;102063.06;5072504;28;20111;-81
2023/05/21 01:08:02;;;;;;;10.55;6.32;;;;;;;16.77;63.62;102062.03;5072499;28;20511;-82
2023/05/21 01:10:28;;;;;;;7.80;5.80;;;;;;;17.08;62.60;102065.72;5057525;28;20044;-78
2023/05/21 01:12:57;;;;;;;8.15;5.70;;;;;;;17.16;62.44;102054.34;5074672;28;20048;-79
2023/05/21 01:15:26;;;;;;;11.05;6.20;;;;;;;17.17;62.14;102053.47;5074984;28;20051;-82
2023/05/21 01:17:55;;;;;;;7.85;5.68;;;;;;;17.21;62.17;102056.97;5071949;28;20485;-78
2023/05/21 01:20:29;;;;;;;10.45;6.20;;;;;;;17.23;61.74;102053.50;5072767;28;20047;-80
2023/05/21 01:22:55;;;;;;;7.72;5.75;;;;;;;17.22;61.94;102048.22;5054366;28;20450;-81
2023/05/21 01:25:24;;;;;;;11.73;6.60;;;;;;;17.08;62.33;102047.28;5074932;28;20044;-82
2023/05/21 01:27:52;;;;;;;8.75;5.45;;;;;;;17.26;62.05;102047.38;5072975;28;20040;-81
2023/05/21 01:30:19;;;;;;;9.50;6.22;;;;;;;17.11;62.47;102049.91;5073150;28;20064;-80
2023/05/21 01:32:57;;;;;;;9.75;6.15;;;;;;;16.93;62.96;102048.94;5069359;28;20036;-81
2023/05/21 01:35:31;;;;;;;8.48;5.95;;;;;;;17.05;62.87;102048.13;5089482;28;20423;-82
2023/05/21 01:38:02;;;;;;;10.00;6.00;;;;;;;17.02;62.89;102045.47;5082227;28;20143;-79
2023/05/21 01:40:34;;;;;;;8.98;6.30;;;;;;;17.01;62.83;102049.00;5071325;28;20043;-79
2023/05/21 01:43:02;;;;;;;9.95;6.18;;;;;;;16.97;63.13;102055.09;5089106;28;20064;-81
2023/05/21 01:45:30;;;;;;;13.45;6.72;;;;;;;16.89;63.22;102049.81;5079800;28;20024;-82
2023/05/21 01:47:56;;;;;;;9.82;6.03;;;;;;;17.01;63.19;102049.88;5088980;28;20025;-81
2023/05/21 01:50:23;;;;;;;11.48;6.03;;;;;;;17.12;62.93;102057.84;5084954;28;20042;-82
2023/05/21 01:52:53;;;;;;;9.07;6.25;;;;;;;17.27;62.76;102052.63;5074620;28;20033;-80
2023/05/21 01:55:24;;;;;;;11.77;6.07;;;;;;;17.02;63.35;102051.63;5071654;28;20052;-80
2023/05/21 01:57:52;;;;;;;10.95;6.30;;;;;;;17.07;63.03;102049.03;5073589;28;20028;-81
2023/05/21 02:00:19;;;;;;;8.07;6.13;;;;;;;17.11;63.46;102048.16;5075264;28;20489;-79
2023/05/21 02:02:44;;;;;;;8.55;6.20;;;;;;;17.37;62.80;102043.91;5071180;28;20043;-80
2023/05/21 02:05:09;;;;;;;8.30;5.97;;;;;;;17.31;62.69;102048.28;5070493;28;20048;-78
2023/05/21 02:07:36;;;;;;;8.60;6.13;;;;;;;17.30;62.95;102044.75;5071636;28;20028;-78
2023/05/21 02:10:02;;;;;;;9.07;6.40;;;;;;;17.45;62.67;102038.63;5071954;28;20140;-78
2023/05/21 02:12:27;;;;;;;9.18;6.15;;;;;;;17.57;62.45;102041.31;5073503;28;20090;-79
2023/05/21 02:14:56;;;;;;;8.90;6.00;;;;;;;17.52;62.19;102043.06;5072876;28;20120;-77
2023/05/21 02:17:23;;;;;;;11.38;6.20;;;;;;;17.62;62.17;102042.28;5075096;28;20101;-78
2023/05/21 02:19:48;;;;;;;8.73;6.03;;;;;;;17.69;62.19;102044.03;5057123;28;20031;-77
2023/05/21 02:22:20;;;;;;;7.53;5.95;;;;;;;17.71;62.09;102039.63;5073873;28;20458;-79
2023/05/21 02:24:45;;;;;;;9.13;6.00;;;;;;;17.82;61.75;102047.56;5072036;28;20040;-80
2023/05/21 02:27:12;;;;;;;11.95;6.32;;;;;;;17.70;62.37;102037.00;5070955;28;20029;-79
2023/05/21 02:29:40;;;;;;;9.95;6.40;;;;;;;17.71;62.35;102033.50;5070841;28;20348;-79
2023/05/21 02:32:06;;;;;;;9.50;6.40;;;;;;;17.73;62.76;102037.91;5069972;28;20357;-80
2023/05/21 02:34:33;;;;;;;9.40;6.15;;;;;;;17.89;62.18;102035.28;5069885;28;20044;-82
2023/05/21 02:37:05;;;;;;;7.22;5.45;;;;;;;18.04;61.68;102043.22;5070005;28;20170;-79
2023/05/21 02:39:30;;;;;;;9.63;6.10;;;;;;;17.91;62.09;102038.81;5071037;28;20039;-78
2023/05/21 02:41:56;;;;;;;8.85;6.00;;;;;;;17.90;62.09;102043.22;5070934;28;20025;-79
2023/05/21 02:44:22;;;;;;;9.95;6.50;;;;;;;17.91;62.42;102036.16;5071822;28;20040;-81
2023/05/21 02:46:51;;;;;;;8.68;5.82;;;;;;;17.99;62.26;102030.00;5071441;28;20515;-80
2023/05/21 02:49:22;;;;;;;8.75;6.32;;;;;;;18.04;62.07;102035.31;5071788;28;20036;-80
2023/05/21 02:51:47;;;;;;;8.27;6.20;;;;;;;18.04;62.33;102038.84;5053384;28;20485;-77
2023/05/21 02:54:13;;;;;;;9.70;6.45;;;;;;;17.96;62.43;102034.41;5071790;28;20114;-80
2023/05/21 02:56:39;;;;;;;9.25;6.53;;;;;;;18.05;62.53;102034.44;5070903;28;20063;-80
2023/05/21 02:59:07;;;;;;;10.80;6.80;;;;;;;17.96;62.51;102030.03;5069225;28;20040;-79
2023/05/21 03:01:35;;;;;;;10.63;6.50;;;;;;;17.98;62.55;102030.91;5069923;28;20037;-81
2023/05/21 03:04:01;;;;;;;9.00;6.07;;;;;;;18.17;61.81;102027.41;5069491;28;20050;-79
2023/05/21 03:06:31;;;;;;;10.88;6.50;;;;;;;18.14;62.19;102029.16;5069175;28;20100;-81
2023/05/21 03:08:56;;;;;;;9.15;6.50;;;;;;;18.11;62.55;102030.03;5069774;28;20501;-79
2023/05/21 03:11:21;;;;;;;8.32;6.15;;;;;;;18.13;62.52;102028.28;5070844;28;20032;-80
2023/05/21 03:13:46;;;;;;;10.18;6.97;;;;;;;17.91;63.29;102029.13;5071329;28;20032;-78
2023/05/21 03:16:12;;;;;;;8.15;6.22;;;;;;;18.09;62.72;102030.91;5071224;28;20056;-80
2023/05/21 03:18:47;;;;;;;10.07;6.72;;;;;;;18.03;62.75;102018.59;5080331;28;20039;-80
2023/05/21 03:21:14;;;;;;;9.65;6.45;;;;;;;18.10;62.50;102019.50;5079123;28;20042;-79
2023/05/21 03:23:40;;;;;;;8.45;6.57;;;;;;;18.02;63.11;102018.59;5063275;28;20043;-80
2023/05/21 03:26:06;;;;;;;9.13;6.68;;;;;;;18.22;62.44;102024.78;5068969;28;20120;-80
2023/05/21 03:28:31;;;;;;;9.32;6.55;;;;;;;18.33;61.89;102025.66;5068837;28;20321;-79
2023/05/21 03:30:57;;;;;;;12.20;6.40;;;;;;;18.30;62.25;102014.22;5068359;28;20033;-80
2023/05/21 03:33:22;;;;;;;10.15;6.60;;;;;;;18.32;61.99;102013.31;5068048;28;20079;-81
2023/05/21 03:35:48;;;;;;;8.60;6.53;;;;;;;18.21;62.24;102015.09;5068646;28;20029;-78
2023/05/21 03:38:13;;;;;;;10.05;6.57;;;;;;;18.37;61.66;102010.66;5068298;28;20056;-81
2023/05/21 03:40:38;;;;;;;9.93;6.78;;;;;;;18.36;61.77;102016.84;5068766;28;20050;-81
2023/05/21 03:43:10;;;;;;;9.75;6.28;;;;;;;18.36;61.86;102016.84;5068776;28;20032;-79
2023/05/21 03:45:41;;;;;;;8.93;6.63;;;;;;;18.37;61.87;102011.56;5069708;28;20115;-79
2023/05/21 03:48:06;;;;;;;9.77;6.75;;;;;;;18.49;61.41;102015.94;5052199;28;20056;-78
2023/05/21 03:50:32;;;;;;;10.65;6.55;;;;;;;18.52;61.22;102013.31;5076652;28;20077;-79
2023/05/21 03:52:57;;;;;;;11.32;6.80;;;;;;;18.42;61.64;102011.56;5078979;28;20032;-78
2023/05/21 03:55:22;;;;;;;9.93;6.53;;;;;;;18.46;61.37;102016.84;5080662;28;20135;-77
2023/05/21 03:57:57;;;;;;;9.65;7.10;;;;;;;18.46;61.37;102021.25;5077028;28;20094;-80
2023/05/21 04:00:27;;;;;;;9.05;6.78;;;;;;;18.42;62.04;102015.06;5072037;28;20037;-79
2023/05/21 04:02:53;;;;;;;9.43;6.70;;;;;;;18.42;61.71;102022.13;5072471;28;20032;-79
2023/05/21 04:05:18;;;;;;;9.20;6.70;;;;;;;18.48;61.58;102020.34;5070522;28;20044;-79
2023/05/21 04:07:47;;;;;;;9.35;6.88;;;;;;;18.23;62.10;102024.78;5070092;28;20493;-79
2023/05/21 04:10:15;;;;;;;10.27;6.70;;;;;;;18.29;62.10;102015.09;5070558;28;20040;-78
2023/05/21 04:12:41;;;;;;;8.70;6.32;;;;;;;18.24;62.26;102025.63;5070362;28;20127;-78
2023/05/21 04:15:06;;;;;;;9.93;6.40;;;;;;;18.30;61.95;102020.34;5071136;28;20059;-80
2023/05/21 04:17:35;;;;;;;10.07;6.60;;;;;;;18.49;61.10;102018.59;5072840;28;20051;-79
2023/05/21 04:20:00;;;;;;;8.32;6.22;;;;;;;18.59;60.83;102017.75;5070989;28;20078;-78
2023/05/21 04:22:26;;;;;;;8.70;6.68;;;;;;;18.46;61.10;102018.59;5071292;28;20036;-78
2023/05/21 04:25:03;;;;;;;9.15;6.57;;;;;;;18.57;61.17;102022.13;5068387;28;20105;-81
2023/05/21 04:27:28;;;;;;;8.43;6.03;;;;;;;18.73;60.64;102023.88;5068192;28;20043;-78
2023/05/21 04:29:56;;;;;;;7.85;6.28;;;;;;;18.56;61.09;102023.00;5067911;28;20037;-78
2023/05/21 04:32:22;;;;;;;9.00;6.65;;;;;;;18.56;60.97;102023.00;5067835;28;20090;-79
2023/05/21 04:34:50;;;;;;;8.05;6.20;;;;;;;18.25;62.23;102019.47;5068551;28;20048;-80
2023/05/21 04:37:18;;;;;;;8.38;6.45;;;;;;;18.44;61.61;102023.88;5047882;28;20029;-79
2023/05/21 04:39:47;;;;;;;9.73;6.63;;;;;;;18.40;61.81;102023.88;5050402;28;20033;-77
2023/05/21 04:42:12;;;;;;;10.68;6.75;;;;;;;18.46;61.51;102022.13;5068195;28;20032;-80
2023/05/21 04:44:44;;;;;;;8.85;6.13;;;;;;;18.43;61.86;102024.75;5068935;28;20032;-79
2023/05/21 04:47:13;;;;;;;9.48;6.60;;;;;;;18.69;61.06;102022.13;5072173;28;20182;-79
2023/05/21 04:49:39;;;;;;;9.70;6.30;;;;;;;18.76;60.79;102020.34;5072440;28;20086;-80
2023/05/21 04:52:10;;;;;;;9.18;6.85;;;;;;;18.69;61.21;102024.75;5072651;28;20032;-79
2023/05/21 04:54:40;;;;;;;8.13;6.22;;;;;;;18.81;60.95;102015.94;5072387;28;20509;-79
2023/05/21 04:57:12;;;;;;;10.30;6.68;;;;;;;18.75;61.04;102015.94;5072835;28;20127;-79
2023/05/21 04:59:42;;;;;;;10.88;6.57;;;;;;;18.65;61.30;102028.31;5072519;28;20420;-79
2023/05/21 05:02:07;;;;;;;8.68;6.30;;;;;;;18.90;60.54;102021.22;5054451;28;20489;-79
2023/05/21 05:04:36;;;;;;;9.48;6.53;;;;;;;18.79;61.28;102025.59;5072640;28;20036;-82
2023/05/21 05:07:01;;;;;;;9.40;6.70;;;;;;;18.74;61.30;102028.28;5075934;28;20029;-82
2023/05/21 05:09:28;;;;;;;9.30;6.20;;;;;;;18.99;60.48;102016.75;5077144;28;20043;-81
2023/05/21 05:12:06;;;;;;;8.15;6.20;;;;;;;19.03;60.27;102012.31;5077884;28;20033;-80
2023/05/21 05:14:31;;;;;;;8.65;6.50;;;;;;;19.03;59.84;102004.41;5075043;28;20090;-79
2023/05/21 05:17:08;;;;;;;8.05;6.20;;;;;;;19.14;60.02;102007.91;5071727;28;20036;-80
2023/05/21 05:19:36;;;;;;;9.48;6.32;;;;;;;19.11;60.07;102004.38;5053624;28;20110;-81
2023/05/21 05:22:02;;;;;;;10.23;6.50;;;;;;;18.95;60.25;102003.56;5071279;28;20094;-79
2023/05/21 05:24:36;;;;;;;8.95;6.40;;;;;;;19.24;59.60;102000.81;5071441;28;20501;-80
2023/05/21 05:27:04;;;;;;;8.88;6.07;;;;;;;19.31;59.28;102014.00;5071988;28;20558;-81
2023/05/21 05:29:30;;;;;;;7.65;6.15;;;;;;;19.27;59.15;102006.09;5071949;28;20048;-82
2023/05/21 05:31:55;;;;;;;7.95;6.43;;;;;;;19.22;59.10;101997.28;5071825;28;20051;-79
2023/05/21 05:34:20;;;;;;;9.20;6.53;;;;;;;18.99;60.19;102000.03;5071191;28;20043;-79
2023/05/21 05:36:45;;;;;;;8.13;6.25;;;;;;;19.17;59.50;101994.66;5072502;28;20036;-81
2023/05/21 05:39:11;;;;;;;11.93;6.40;;;;;;;19.18;59.25;101996.44;5056940;28;20059;-81
2023/05/21 05:41:36;;;;;;;9.45;6.22;;;;;;;19.28;59.01;101994.59;5090117;28;20105;-84
2023/05/21 05:44:04;;;;;;;9.38;7.00;;;;;;;19.21;59.46;101990.25;5093967;28;20044;-82
2023/05/21 05:46:30;;;;;;;8.48;6.53;;;;;;;18.92;60.28;101987.69;5073349;28;20052;-79
2023/05/21 05:48:55;;;;;;;7.32;5.93;;;;;;;19.20;59.32;101986.75;5072277;28;20033;-79
2023/05/21 05:51:20;;;;;;;8.65;6.45;;;;;;;19.17;59.65;101989.38;5072453;28;20041;-78
2023/05/21 05:53:46;;;;;;;9.85;6.95;;;;;;;19.31;58.82;101990.19;5074594;28;20074;-79
2023/05/21 05:56:11;;;;;;;10.63;6.75;;;;;;;19.36;58.68;101991.06;5071788;28;20412;-79
2023/05/21 05:58:45;;;;;;;9.45;6.60;;;;;;;19.53;58.52;101990.09;5070794;28;20040;-79
2023/05/21 06:01:12;;;;;;;8.35;6.78;;;;;;;19.40;58.53;101986.63;5070434;28;20044;-80
2023/05/21 06:03:37;;;;;;;11.68;6.88;;;;;;;19.26;59.40;101981.41;5071591;28;20081;-82
2023/05/21 06:06:05;;;;;;;8.02;6.28;;;;;;;19.88;58.14;101985.50;5071243;28;20311;-79
2023/05/21 06:08:39;;;;;;;8.18;6.82;;;;;;;19.48;58.82;101989.25;5077770;28;20078;-82
2023/05/21 06:11:08;;;;;;;10.07;6.50;;;;;;;19.58;58.51;101996.28;5075685;28;20068;-79
2023/05/21 06:13:36;;;;;;;9.75;6.68;;;;;;;19.88;57.46;101995.19;5076494;28;20450;-81
2023/05/21 06:16:05;;;;;;;9.10;6.55;;;;;;;19.94;56.94;101998.69;5076077;28;20032;-82
2023/05/21 06:18:30;;;;;;;9.13;6.72;;;;;;;20.12;56.64;101993.25;5075788;28;20064;-81
2023/05/21 06:20:55;;;;;;;9.00;6.70;;;;;;;20.17;56.69;102002.00;5070607;28;20056;-79
2023/05/21 06:23:21;;;;;;;9.50;6.60;;;;;;;20.42;56.28;102004.47;5052246;28;20111;-79
2023/05/21 06:25:52;;;;;;;11.65;7.00;;;;;;;20.53;55.89;102003.50;5070732;28;20174;-79
2023/05/21 06:28:20;;;;;;;9.65;6.55;;;;;;;20.83;55.23;102004.06;5069955;28;20040;-80
2023/05/21 06:30:45;;;;;;;8.88;6.78;;;;;;;20.32;55.81;101998.38;5070735;28;20113;-81
2023/05/21 06:33:17;;;;;;;9.27;7.15;;;;;;;20.90;55.21;102003.09;5070096;28;20052;-79
2023/05/21 06:35:42;;;;;;;9.30;6.97;;;;;;;20.95;54.47;102007.44;5071448;28;20047;-80
2023/05/21 06:38:07;;;;;;;8.10;6.70;;;;;;;21.51;53.21;101994.41;5071413;28;20029;-79
2023/05/21 06:40:46;;;;;;;9.90;7.28;;;;;;;21.99;51.64;101993.69;5071164;28;20119;-79
2023/05/21 06:43:12;;;;;;;9.38;7.68;;;;;;;21.71;51.66;101993.19;5070844;28;20083;-79
2023/05/21 06:45:38;;;;;;;9.90;7.32;;;;;;;21.32;53.17;102001.72;5071449;28;20041;-82
2023/05/21 06:48:06;;;;;;;10.82;7.28;;;;;;;21.46;52.40;101997.13;5071310;28;20029;-81
2023/05/21 06:50:31;;;;;;;11.02;7.72;;;;;;;21.29;52.28;102002.63;5077550;28;20412;-80
2023/05/21 06:53:02;;;;;;;10.70;7.70;;;;;;;21.64;51.99;101993.34;5079866;28;20044;-81
2023/05/21 06:55:43;;;;;;;10.43;7.65;;;;;;;20.90;53.88;101998.69;5080544;28;20056;-78
2023/05/21 06:58:24;;;;;;;11.23;7.55;;;;;;;21.17;53.40;101999.25;5079861;28;20119;-80
2023/05/21 07:00:52;;;;;;;9.70;7.85;;;;;;;21.01;53.73;102003.84;5079861;28;20024;-80
2023/05/21 07:03:21;;;;;;;10.40;7.97;;;;;;;20.71;54.57;102009.50;5078896;28;20059;-80
2023/05/21 07:05:46;;;;;;;10.52;7.80;;;;;;;20.70;54.59;102007.72;5079055;28;20118;-79
2023/05/21 07:08:18;;;;;;;10.05;7.80;;;;;;;20.75;54.75;102019.16;5078534;28;20040;-80
2023/05/21 07:10:45;;;;;;;13.02;7.97;;;;;;;21.26;53.33;102013.28;5079253;28;20133;-80
2023/05/21 07:13:13;;;;;;;10.77;8.27;;;;;;;21.19;53.42;102019.56;5062446;28;20032;-79
2023/05/21 07:15:44;;;;;;;10.48;7.65;;;;;;;20.80;53.65;102020.84;5081461;28;20549;-78
2023/05/21 07:18:10;;;;;;;11.05;7.85;;;;;;;20.87;53.76;102019.91;5065687;28;20039;-78
2023/05/21 07:20:36;;;;;;;11.07;7.60;;;;;;;20.69;54.12;102017.44;5061101;28;20111;-79
2023/05/21 07:23:01;;;;;;;10.70;7.60;;;;;;;20.96;53.38;102014.50;5078225;28;20127;-78
2023/05/21 07:25:26;;;;;;;11.77;8.07;;;;;;;20.89;53.60;102018.13;5078483;28;20101;-79
2023/05/21 07:27:58;;;;;;;10.52;7.45;;;;;;;21.16;53.56;102016.09;5078001;28;20044;-79
2023/05/21 07:30:23;;;;;;;12.63;8.55;;;;;;;21.21;53.32;102019.56;5060071;28;20131;-80
2023/05/21 07:32:49;;;;;;;12.10;7.80;;;;;;;21.26;53.28;102015.06;5078839;28;20311;-79
2023/05/21 07:35:18;;;;;;;11.10;7.65;;;;;;;21.00;52.24;102020.66;5061305;28;20123;-78
2023/05/21 07:37:46;;;;;;;11.57;7.65;;;;;;;21.06;52.65;102016.16;5080237;28;20381;-79
2023/05/21 07:40:12;;;;;;;10.98;7.55;;;;;;;20.84;53.64;102022.59;5081122;28;20068;-80
2023/05/21 07:42:40;;;;;;;11.23;7.82;;;;;;;20.96;53.07;102013.63;5064720;28;20059;-79
2023/05/21 07:45:12;;;;;;;10.98;7.68;;;;;;;20.92;53.16;102012.78;5071334;28;20040;-79
2023/05/21 07:47:40;;;;;;;10.40;7.65;;;;;;;20.72;53.87;102016.56;5079925;28;20039;-79
2023/05/21 07:50:06;;;;;;;12.80;8.18;;;;;;;20.96;52.61;102009.22;5081794;28;20036;-78
2023/05/21 07:52:31;;;;;;;11.23;7.13;;;;;;;21.49;51.97;102007.69;5082986;28;20048;-77
2023/05/21 07:54:56;;;;;;;12.35;7.63;;;;;;;21.26;52.86;102013.28;5082708;28;20390;-79
2023/05/21 07:57:28;;;;;;;10.02;7.40;;;;;;;21.57;52.25;102008.47;5087758;28;20108;-79
2023/05/21 07:59:53;;;;;;;11.48;8.10;;;;;;;21.31;52.00;102014.09;5090448;28;20080;-77
2023/05/21 08:02:19;;;;;;;11.27;7.95;;;;;;;21.10;52.52;102008.19;5091300;28;20048;-77
2023/05/21 08:04:47;;;;;;;10.30;7.82;;;;;;;21.22;52.69;102008.06;5091952;28;20040;-76
2023/05/21 08:07:15;;;;;;;12.45;8.02;;;;;;;21.49;51.82;102006.81;5093136;28;20028;-77
2023/05/21 08:09:40;;;;;;;11.20;7.85;;;;;;;21.40;52.48;102010.47;5092641;28;20081;-78
2023/05/21 08:12:06;;;;;;;12.27;8.13;;;;;;;21.60;52.11;102005.75;5089108;28;20041;-76
2023/05/21 08:14:31;;;;;;;11.25;8.43;;;;;;;21.30;52.77;102004.38;5080452;28;20052;-78
2023/05/21 08:16:57;;;;;;;11.80;8.13;;;;;;;21.33;52.30;102004.38;5081796;28;20473;-81
2023/05/21 08:19:22;;;;;;;14.68;8.55;;;;;;;21.40;52.28;102007.81;5081995;28;20029;-78
2023/05/21 08:21:47;;;;;;;14.73;8.20;;;;;;;21.21;52.43;102012.47;5082797;28;20028;-79
2023/05/21 08:24:16;;;;;;;13.25;8.60;;;;;;;21.17;52.59;102010.75;5064578;28;20481;-78
2023/05/21 08:26:42;;;;;;;12.80;8.98;;;;;;;20.95;53.50;102007.44;5084025;28;20044;-78
2023/05/21 08:29:07;;;;;;;14.18;8.73;;;;;;;21.36;51.55;102011.38;5088918;28;20012;-77
2023/05/21 08:31:33;;;;;;;10.93;8.07;;;;;;;21.24;52.31;102015.06;5096363;28;20036;-77
2023/05/21 08:33:58;;;;;;;13.90;8.30;;;;;;;21.50;51.49;102008.56;5096209;28;20021;-76
2023/05/21 08:36:23;;;;;;;13.10;8.48;;;;;;;21.18;52.13;102011.63;5074711;28;20044;-79
2023/05/21 08:38:49;;;;;;;11.85;7.80;;;;;;;21.20;51.87;102016.03;5085600;28;20048;-79
2023/05/21 08:41:17;;;;;;;10.95;7.90;;;;;;;21.54;51.38;102012.91;5074708;28;20044;-79
2023/05/21 08:43:45;;;;;;;9.05;7.15;;;;;;;21.87;50.61;102001.81;5066731;28;20037;-79
2023/05/21 08:46:20;;;;;;;10.52;7.30;;;;;;;21.74;50.59;102009.09;5084613;28;20036;-79
2023/05/21 08:48:53;;;;;;;13.40;7.85;;;;;;;21.65;50.40;101998.59;5083308;28;20032;-80
2023/05/21 08:51:20;;;;;;;12.18;7.75;;;;;;;21.92;49.56;101999.09;5082218;28;20048;-79
2023/05/21 08:53:52;;;;;;;10.07;7.90;;;;;;;22.34;49.06;102002.84;5083460;28;20040;-79
2023/05/21 08:56:26;;;;;;;15.13;7.95;;;;;;;21.96;48.97;101992.84;5090290;28;20055;-80
2023/05/21 08:58:54;;;;;;;10.05;7.25;;;;;;;22.35;48.34;102000.16;5077634;28;20067;-78
2023/05/21 09:01:25;;;;;;;9.82;7.60;;;;;;;22.72;46.57;101984.47;5088784;28;20037;-79
2023/05/21 09:03:56;;;;;;;11.68;7.55;;;;;;;22.55;47.08;101998.03;5076697;28;20156;-80
2023/05/21 09:06:24;;;;;;;11.05;7.50;;;;;;;23.23;45.82;102002.94;5085373;28;20032;-81
2023/05/21 09:09:01;;;;;;;11.50;7.38;;;;;;;23.63;44.88;101992.31;5083597;28;20028;-79
2023/05/21 09:11:28;;;;;;;10.55;6.90;;;;;;;23.71;44.18;101977.94;5088483;28;20040;-79
2023/05/21 09:13:58;;;;;;;13.10;7.25;;;;;;;23.56;44.68;101988.03;5087935;28;20473;-79
2023/05/21 09:16:26;;;;;;;9.68;6.75;;;;;;;23.83;43.33;101979.44;5088174;28;20037;-81
2023/05/21 09:18:58;;;;;;;12.70;7.50;;;;;;;23.94;43.54;101984.47;5089020;28;20028;-80
2023/05/21 09:21:38;;;;;;;10.52;7.10;;;;;;;23.96;43.44;101974.69;5087358;28;20071;-79
2023/05/21 09:24:09;;;;;;;10.57;6.80;;;;;;;23.71;43.15;101963.75;5089369;28;20029;-80
2023/05/21 09:26:51;;;;;;;10.75;7.60;;;;;;;24.11;43.17;101974.28;5089334;28;20041;-80
2023/05/21 09:29:19;;;;;;;8.48;6.93;;;;;;;23.36;44.28;101968.03;5076938;28;20059;-80
2023/05/21 09:31:48;;;;;;;10.98;7.45;;;;;;;23.55;43.47;101979.19;5085713;28;20044;-80
2023/05/21 09:34:16;;;;;;;12.90;7.10;;;;;;;23.87;43.53;101981.09;5082919;28;20024;-82
2023/05/21 09:36:47;;;;;;;9.52;6.72;;;;;;;24.37;43.11;101968.31;5081945;28;20078;-80
2023/05/21 09:39:26;;;;;;;9.95;7.15;;;;;;;24.04;42.55;101965.56;5081289;28;20116;-79
2023/05/21 09:41:51;;;;;;;11.00;6.95;;;;;;;24.21;42.37;101965.19;5080384;28;20132;-80
2023/05/21 09:44:17;;;;;;;11.57;7.38;;;;;;;24.38;41.56;101967.41;5082378;28;20036;-80
2023/05/21 09:46:45;;;;;;;10.55;7.20;;;;;;;24.31;42.36;101969.34;5063134;28;20059;-81
2023/05/21 09:49:26;;;;;;;9.93;7.28;;;;;;;24.01;42.41;101963.00;5079651;28;20036;-80
2023/05/21 09:51:58;;;;;;;10.15;6.57;;;;;;;24.12;42.66;101963.59;5079884;28;20098;-80
2023/05/21 09:54:33;;;;;;;10.05;7.70;;;;;;;23.72;43.48;101960.16;5082088;28;20295;-81
2023/05/21 09:57:01;;;;;;;12.52;7.65;;;;;;;23.56;44.01;101964.09;5079620;28;20028;-79
2023/05/21 09:59:48;;;;;;;14.57;7.47;;;;;;;24.12;42.99;101970.69;5081493;28;20036;-79
2023/05/21 10:02:19;;;;;;;10.23;6.95;;;;;;;24.53;41.74;101975.84;5071054;28;20135;-80
2023/05/21 10:04:55;;;;;;;11.88;6.85;;;;;;;24.00;42.47;101966.56;5078768;28;20460;-79
2023/05/21 10:07:26;;;;;;;10.40;6.60;;;;;;;24.42;41.90;101969.94;5081499;28;20386;-80
2023/05/21 10:09:56;;;;;;;10.10;7.00;;;;;;;24.07;41.92;101962.84;5078749;28;20039;-79
2023/05/21 10:12:27;;;;;;;11.30;7.00;;;;;;;24.31;41.87;101963.16;5082586;28;20040;-80
2023/05/21 10:15:02;;;;;;;11.65;7.05;;;;;;;24.43;42.83;101962.81;5082327;28;20033;-81
2023/05/21 10:17:28;;;;;;;10.25;6.85;;;;;;;25.10;40.98;101956.50;5083508;28;20040;-82
2023/05/21 10:19:55;;;;;;;10.27;6.68;;;;;;;25.17;40.66;101954.53;5082893;28;20029;-81
2023/05/21 10:22:24;;;;;;;12.23;6.80;;;;;;;25.10;40.60;101947.63;5082486;28;20059;-82
2023/05/21 10:24:51;;;;;;;10.23;6.78;;;;;;;25.16;40.80;101953.66;5064893;28;20058;-82
2023/05/21 10:27:21;;;;;;;9.60;6.93;;;;;;;24.90;41.08;101951.72;5087627;28;20028;-80
2023/05/21 10:29:50;;;;;;;12.30;7.47;;;;;;;25.49;41.06;101940.19;5075989;28;20033;-79
2023/05/21 10:32:21;;;;;;;13.00;7.53;;;;;;;25.22;39.87;101939.22;5094173;28;20040;-80
2023/05/21 10:34:55;;;;;;;10.95;6.85;;;;;;;25.58;40.53;101937.25;5079064;28;20130;-82
2023/05/21 10:37:27;;;;;;;9.75;7.10;;;;;;;25.31;41.10;101928.28;5078363;28;20063;-80
2023/05/21 10:39:56;;;;;;;9.20;7.18;;;;;;;24.31;42.65;101936.50;5078866;28;20043;-80
2023/05/21 10:42:42;;;;;;;12.05;7.13;;;;;;;24.47;41.98;101941.38;5079393;28;20127;-81
2023/05/21 10:45:52;;;;;;;9.90;7.53;;;;;;;24.77;41.24;101942.28;5079763;28;20044;-81
2023/05/21 10:48:31;;;;;;;10.65;7.15;;;;;;;25.08;41.07;101938.75;5071036;28;20135;-79
2023/05/21 10:51:21;;;;;;;10.50;7.30;;;;;;;25.06;41.86;101933.50;5081692;28;20116;-82
2023/05/21 10:53:53;;;;;;;10.80;7.50;;;;;;;25.17;41.29;101931.38;5084474;28;20039;-80
2023/05/21 10:56:37;;;;;;;12.85;7.13;;;;;;;24.80;42.13;101933.34;5087038;28;20040;-79
2023/05/21 10:59:44;;;;;;;12.18;7.32;;;;;;;25.24;41.65;101929.41;5065951;28;20093;-81
2023/05/21 11:02:14;;;;;;;11.35;7.78;;;;;;;24.99;41.75;101930.13;5083154;28;20036;-79
2023/05/21 11:04:43;;;;;;;11.40;7.75;;;;;;;24.89;40.76;101919.75;5087188;28;20040;-78
2023/05/21 11:07:12;;;;;;;12.45;7.60;;;;;;;24.99;41.06;101916.81;5089314;28;20039;-81
2023/05/21 11:09:37;;;;;;;10.77;7.60;;;;;;;24.82;41.42;101924.41;5070359;28;20420;-80
2023/05/21 11:12:03;;;;;;;12.05;7.95;;;;;;;24.58;41.79;101915.28;5086748;28;20036;-81
2023/05/21 11:14:55;;;;;;;13.05;8.35;;;;;;;24.52;41.75;101911.91;5084539;28;20063;-80
2023/05/21 11:17:38;;;;;;;11.07;7.65;;;;;;;24.91;41.50;101908.13;5086027;28;20032;-81
2023/05/21 11:20:24;;;;;;;15.13;8.20;;;;;;;24.83;42.38;101910.13;5081808;28;20447;-81
2023/05/21 11:22:50;;;;;;;13.32;8.32;;;;;;;24.82;41.60;101907.50;5082521;28;20044;-80
2023/05/21 11:25:17;;;;;;;13.45;8.05;;;;;;;24.82;42.14;101913.72;5081616;28;20428;-81
2023/05/21 11:27:42;;;;;;;11.45;7.95;;;;;;;24.77;42.15;101902.28;5081150;28;20033;-80
2023/05/21 11:30:16;;;;;;;13.20;8.55;;;;;;;24.63;41.75;101901.84;5080038;28;20059;-81